sensor_id;sensor_type;location;lat;lon;timestamp;P1;durP1;ratioP1;P2;durP2;ratioP2
3819;SDS011;1925;51.356;9.530;2022-12-07T00:01:30;6.95;;;5.90;;
3819;SDS011;1925;51.356;9.530;2022-12-07T00:03:57;8.07;;;6.35;;
3819;SDS011;1925;51.356;9.530;2022-12-07T00:06:29;8.82;;;6.90;;
3819;SDS011;1925;51.356;9.530;2022-12-07T00:08:55;9.40;;;6.20;;
3819;SDS011;1925;51.356;9.530;2022-12-07T00:11:21;30.48;;;17.70;;
3819;SDS011;1925;51.356;9.530;2022-12-07T00:13:51;11.30;;;7.63;;
3819;SDS011;1925;51.356;9.530;2022-12-07T00:16:18;48.05;;;27.52;;
3819;SDS011;1925;51.356;9.530;2022-12-07T00:18:44;41.80;;;22.90;;
3819;SDS011;1925;51.356;9.530;2022-12-07T00:21:14;14.70;;;7.93;;
3819;SDS011;1925;51.356;9.530;2022-12-07T00:23:41;16.45;;;10.55;;
3819;SDS011;1925;51.356;9.530;2022-12-07T00:26:18;10.10;;;7.80;;
3819;SDS011;1925;51.356;9.530;2022-12-07T00:28:45;15.93;;;7.50;;
3819;SDS011;1925;51.356;9.530;2022-12-07T00:31:12;10.30;;;7.88;;
3819;SDS011;1925;51.356;9.530;2022-12-07T00:33:38;9.13;;;6.60;;
3819;SDS011;1925;51.356;9.530;2022-12-07T00:36:05;9.93;;;7.65;;
3819;SDS011;1925;51.356;9.530;2022-12-07T00:38:32;10.00;;;7.10;;
3819;SDS011;1925;51.356;9.530;2022-12-07T00:41:00;10.23;;;6.95;;
3819;SDS011;1925;51.356;9.530;2022-12-07T00:43:26;12.57;;;8.63;;
3819;SDS011;1925;51.356;9.530;2022-12-07T00:45:53;14.90;;;8.17;;
3819;SDS011;1925;51.356;9.530;2022-12-07T00:48:19;13.45;;;9.02;;
3819;SDS011;1925;51.356;9.530;2022-12-07T00:50:45;13.27;;;8.93;;
3819;SDS011;1925;51.356;9.530;2022-12-07T00:53:11;11.93;;;9.30;;
3819;SDS011;1925;51.356;9.530;2022-12-07T00:55:37;11.70;;;8.43;;
3819;SDS011;1925;51.356;9.530;2022-12-07T00:58:03;15.00;;;10.63;;
3819;SDS011;1925;51.356;9.530;2022-12-07T01:00:29;21.85;;;10.25;;
3819;SDS011;1925;51.356;9.530;2022-12-07T01:02:55;13.38;;;9.73;;
3819;SDS011;1925;51.356;9.530;2022-12-07T01:05:21;12.60;;;8.83;;
3819;SDS011;1925;51.356;9.530;2022-12-07T01:07:47;14.50;;;9.80;;
3819;SDS011;1925;51.356;9.530;2022-12-07T01:10:14;16.10;;;10.57;;
3819;SDS011;1925;51.356;9.530;2022-12-07T01:12:40;13.45;;;10.10;;
3819;SDS011;1925;51.356;9.530;2022-12-07T01:15:07;15.60;;;10.43;;
3819;SDS011;1925;51.356;9.530;2022-12-07T01:17:33;15.70;;;11.07;;
3819;SDS011;1925;51.356;9.530;2022-12-07T01:19:59;18.55;;;11.10;;
3819;SDS011;1925;51.356;9.530;2022-12-07T01:22:25;17.20;;;9.60;;
3819;SDS011;1925;51.356;9.530;2022-12-07T01:24:51;21.55;;;11.60;;
3819;SDS011;1925;51.356;9.530;2022-12-07T01:27:17;16.80;;;11.60;;
3819;SDS011;1925;51.356;9.530;2022-12-07T01:29:43;16.13;;;11.40;;
3819;SDS011;1925;51.356;9.530;2022-12-07T01:32:09;19.47;;;10.73;;
3819;SDS011;1925;51.356;9.530;2022-12-07T01:34:35;15.57;;;10.80;;
3819;SDS011;1925;51.356;9.530;2022-12-07T01:37:01;14.98;;;9.93;;
3819;SDS011;1925;51.356;9.530;2022-12-07T01:39:26;17.10;;;11.77;;
3819;SDS011;1925;51.356;9.530;2022-12-07T01:41:52;14.17;;;10.17;;
3819;SDS011;1925;51.356;9.530;2022-12-07T01:44:28;17.03;;;11.37;;
3819;SDS011;1925;51.356;9.530;2022-12-07T01:47:01;18.48;;;10.75;;
3819;SDS011;1925;51.356;9.530;2022-12-07T01:49:31;17.08;;;10.63;;
3819;SDS011;1925;51.356;9.530;2022-12-07T01:54:28;21.23;;;11.70;;
3819;SDS011;1925;51.356;9.530;2022-12-07T01:56:54;18.30;;;11.20;;
3819;SDS011;1925;51.356;9.530;2022-12-07T01:59:23;15.88;;;12.20;;
3819;SDS011;1925;51.356;9.530;2022-12-07T02:01:51;20.02;;;12.48;;
3819;SDS011;1925;51.356;9.530;2022-12-07T02:04:17;19.08;;;11.20;;
3819;SDS011;1925;51.356;9.530;2022-12-07T02:06:43;17.35;;;12.02;;
3819;SDS011;1925;51.356;9.530;2022-12-07T02:09:10;18.45;;;12.10;;
3819;SDS011;1925;51.356;9.530;2022-12-07T02:11:37;15.80;;;11.35;;
3819;SDS011;1925;51.356;9.530;2022-12-07T02:14:03;15.27;;;10.32;;
3819;SDS011;1925;51.356;9.530;2022-12-07T02:21:47;15.70;;;10.98;;
3819;SDS011;1925;51.356;9.530;2022-12-07T02:29:50;18.48;;;10.35;;
3819;SDS011;1925;51.356;9.530;2022-12-07T02:34:49;17.20;;;10.80;;
3819;SDS011;1925;51.356;9.530;2022-12-07T02:39:52;13.57;;;9.15;;
3819;SDS011;1925;51.356;9.530;2022-12-07T02:42:23;15.02;;;9.85;;
3819;SDS011;1925;51.356;9.530;2022-12-07T02:44:51;16.70;;;10.32;;
3819;SDS011;1925;51.356;9.530;2022-12-07T02:47:17;14.93;;;10.55;;
3819;SDS011;1925;51.356;9.530;2022-12-07T02:49:45;16.55;;;10.95;;
3819;SDS011;1925;51.356;9.530;2022-12-07T02:52:11;17.73;;;11.15;;
3819;SDS011;1925;51.356;9.530;2022-12-07T02:54:37;17.55;;;9.65;;
3819;SDS011;1925;51.356;9.530;2022-12-07T03:07:55;14.70;;;10.57;;
3819;SDS011;1925;51.356;9.530;2022-12-07T03:18:24;12.30;;;8.73;;
3819;SDS011;1925;51.356;9.530;2022-12-07T03:20:52;12.32;;;9.02;;
3819;SDS011;1925;51.356;9.530;2022-12-07T03:23:19;14.38;;;10.25;;
3819;SDS011;1925;51.356;9.530;2022-12-07T03:25:47;15.02;;;9.50;;
3819;SDS011;1925;51.356;9.530;2022-12-07T03:28:16;13.63;;;9.32;;
3819;SDS011;1925;51.356;9.530;2022-12-07T03:30:51;13.07;;;9.98;;
3819;SDS011;1925;51.356;9.530;2022-12-07T03:33:20;12.70;;;8.90;;
3819;SDS011;1925;51.356;9.530;2022-12-07T03:35:50;10.50;;;8.15;;
3819;SDS011;1925;51.356;9.530;2022-12-07T03:38:18;11.77;;;8.75;;
3819;SDS011;1925;51.356;9.530;2022-12-07T03:41:28;17.60;;;10.43;;
3819;SDS011;1925;51.356;9.530;2022-12-07T03:43:34;14.63;;;9.80;;
3819;SDS011;1925;51.356;9.530;2022-12-07T03:48:36;12.97;;;8.90;;
3819;SDS011;1925;51.356;9.530;2022-12-07T03:51:06;11.35;;;9.20;;
3819;SDS011;1925;51.356;9.530;2022-12-07T03:53:39;13.15;;;9.15;;
3819;SDS011;1925;51.356;9.530;2022-12-07T03:56:08;12.18;;;8.00;;
3819;SDS011;1925;51.356;9.530;2022-12-07T03:58:34;11.90;;;8.95;;
3819;SDS011;1925;51.356;9.530;2022-12-07T04:01:00;13.18;;;9.40;;
3819;SDS011;1925;51.356;9.530;2022-12-07T04:03:26;12.77;;;9.50;;
3819;SDS011;1925;51.356;9.530;2022-12-07T04:05:53;13.33;;;9.27;;
3819;SDS011;1925;51.356;9.530;2022-12-07T04:08:19;12.32;;;8.10;;
3819;SDS011;1925;51.356;9.530;2022-12-07T04:10:45;11.37;;;8.87;;
3819;SDS011;1925;51.356;9.530;2022-12-07T04:13:11;10.07;;;8.03;;
3819;SDS011;1925;51.356;9.530;2022-12-07T04:15:37;16.27;;;8.10;;
3819;SDS011;1925;51.356;9.530;2022-12-07T04:18:03;13.37;;;8.37;;
3819;SDS011;1925;51.356;9.530;2022-12-07T04:20:29;14.20;;;9.53;;
3819;SDS011;1925;51.356;9.530;2022-12-07T04:22:55;11.80;;;8.73;;
3819;SDS011;1925;51.356;9.530;2022-12-07T04:25:20;12.40;;;8.40;;
3819;SDS011;1925;51.356;9.530;2022-12-07T04:27:46;11.90;;;8.50;;
3819;SDS011;1925;51.356;9.530;2022-12-07T04:30:12;12.20;;;8.85;;
3819;SDS011;1925;51.356;9.530;2022-12-07T04:32:38;10.60;;;8.53;;
3819;SDS011;1925;51.356;9.530;2022-12-07T04:35:05;12.20;;;8.70;;
3819;SDS011;1925;51.356;9.530;2022-12-07T04:37:31;11.70;;;8.60;;
3819;SDS011;1925;51.356;9.530;2022-12-07T04:39:56;13.13;;;8.83;;
3819;SDS011;1925;51.356;9.530;2022-12-07T04:42:22;15.60;;;10.20;;
3819;SDS011;1925;51.356;9.530;2022-12-07T04:44:48;13.17;;;9.10;;
3819;SDS011;1925;51.356;9.530;2022-12-07T04:47:15;15.65;;;10.43;;
3819;SDS011;1925;51.356;9.530;2022-12-07T04:49:41;13.98;;;9.90;;
3819;SDS011;1925;51.356;9.530;2022-12-07T04:52:07;12.23;;;9.87;;
3819;SDS011;1925;51.356;9.530;2022-12-07T04:54:33;14.53;;;9.20;;
3819;SDS011;1925;51.356;9.530;2022-12-07T04:56:59;11.10;;;8.68;;
3819;SDS011;1925;51.356;9.530;2022-12-07T04:59:25;12.90;;;9.07;;
3819;SDS011;1925;51.356;9.530;2022-12-07T05:01:51;13.07;;;8.90;;
3819;SDS011;1925;51.356;9.530;2022-12-07T05:04:17;13.20;;;9.53;;
3819;SDS011;1925;51.356;9.530;2022-12-07T05:06:43;10.30;;;8.63;;
3819;SDS011;1925;51.356;9.530;2022-12-07T05:09:09;15.98;;;9.23;;
3819;SDS011;1925;51.356;9.530;2022-12-07T05:11:35;14.38;;;9.23;;
3819;SDS011;1925;51.356;9.530;2022-12-07T05:14:17;16.70;;;9.80;;
3819;SDS011;1925;51.356;9.530;2022-12-07T05:16:44;11.13;;;8.55;;
3819;SDS011;1925;51.356;9.530;2022-12-07T05:19:11;13.35;;;9.70;;
3819;SDS011;1925;51.356;9.530;2022-12-07T05:21:37;11.52;;;9.10;;
3819;SDS011;1925;51.356;9.530;2022-12-07T05:24:03;12.15;;;8.27;;
3819;SDS011;1925;51.356;9.530;2022-12-07T05:26:30;12.82;;;9.18;;
3819;SDS011;1925;51.356;9.530;2022-12-07T05:28:56;10.73;;;8.48;;
3819;SDS011;1925;51.356;9.530;2022-12-07T05:31:22;11.52;;;8.00;;
3819;SDS011;1925;51.356;9.530;2022-12-07T05:33:48;12.45;;;7.97;;
3819;SDS011;1925;51.356;9.530;2022-12-07T05:36:14;15.17;;;8.60;;
3819;SDS011;1925;51.356;9.530;2022-12-07T05:38:40;11.80;;;7.78;;
3819;SDS011;1925;51.356;9.530;2022-12-07T05:41:07;9.53;;;7.63;;
3819;SDS011;1925;51.356;9.530;2022-12-07T05:43:53;12.50;;;7.07;;
3819;SDS011;1925;51.356;9.530;2022-12-07T05:46:19;10.93;;;7.35;;
3819;SDS011;1925;51.356;9.530;2022-12-07T05:48:45;10.73;;;8.30;;
3819;SDS011;1925;51.356;9.530;2022-12-07T05:51:11;12.83;;;8.33;;
3819;SDS011;1925;51.356;9.530;2022-12-07T05:53:37;12.47;;;7.67;;
3819;SDS011;1925;51.356;9.530;2022-12-07T05:56:03;15.73;;;8.37;;
3819;SDS011;1925;51.356;9.530;2022-12-07T05:58:29;13.93;;;7.22;;
3819;SDS011;1925;51.356;9.530;2022-12-07T06:01:14;11.50;;;7.90;;
3819;SDS011;1925;51.356;9.530;2022-12-07T06:03:40;16.47;;;7.77;;
3819;SDS011;1925;51.356;9.530;2022-12-07T06:06:06;8.90;;;6.67;;
3819;SDS011;1925;51.356;9.530;2022-12-07T06:08:31;10.53;;;8.07;;
3819;SDS011;1925;51.356;9.530;2022-12-07T06:10:57;12.63;;;7.23;;
3819;SDS011;1925;51.356;9.530;2022-12-07T06:13:42;16.45;;;8.57;;
3819;SDS011;1925;51.356;9.530;2022-12-07T06:16:08;13.70;;;8.33;;
3819;SDS011;1925;51.356;9.530;2022-12-07T06:18:34;9.10;;;6.93;;
3819;SDS011;1925;51.356;9.530;2022-12-07T06:20:59;12.57;;;5.90;;
3819;SDS011;1925;51.356;9.530;2022-12-07T06:23:25;10.07;;;6.07;;
3819;SDS011;1925;51.356;9.530;2022-12-07T06:25:51;8.47;;;7.00;;
3819;SDS011;1925;51.356;9.530;2022-12-07T06:28:17;13.00;;;8.40;;
3819;SDS011;1925;51.356;9.530;2022-12-07T06:30:43;25.77;;;8.00;;
3819;SDS011;1925;51.356;9.530;2022-12-07T06:33:09;10.20;;;6.40;;
3819;SDS011;1925;51.356;9.530;2022-12-07T06:35:35;10.90;;;7.33;;
3819;SDS011;1925;51.356;9.530;2022-12-07T06:38:01;11.80;;;7.67;;
3819;SDS011;1925;51.356;9.530;2022-12-07T06:40:27;13.13;;;7.80;;
3819;SDS011;1925;51.356;9.530;2022-12-07T06:42:53;13.87;;;6.60;;
3819;SDS011;1925;51.356;9.530;2022-12-07T06:45:19;10.57;;;5.90;;
3819;SDS011;1925;51.356;9.530;2022-12-07T06:47:45;12.93;;;6.60;;
3819;SDS011;1925;51.356;9.530;2022-12-07T06:50:11;11.93;;;6.90;;
3819;SDS011;1925;51.356;9.530;2022-12-07T06:52:37;8.00;;;6.10;;
3819;SDS011;1925;51.356;9.530;2022-12-07T06:55:03;8.87;;;5.27;;
3819;SDS011;1925;51.356;9.530;2022-12-07T06:57:29;7.95;;;5.75;;
3819;SDS011;1925;51.356;9.530;2022-12-07T06:59:55;11.50;;;6.23;;
3819;SDS011;1925;51.356;9.530;2022-12-07T07:02:21;10.13;;;5.60;;
3819;SDS011;1925;51.356;9.530;2022-12-07T07:04:47;13.60;;;6.33;;
3819;SDS011;1925;51.356;9.530;2022-12-07T07:07:13;9.13;;;5.17;;
3819;SDS011;1925;51.356;9.530;2022-12-07T07:09:38;10.53;;;6.00;;
3819;SDS011;1925;51.356;9.530;2022-12-07T07:12:04;10.77;;;5.73;;
3819;SDS011;1925;51.356;9.530;2022-12-07T07:14:31;10.05;;;5.57;;
3819;SDS011;1925;51.356;9.530;2022-12-07T07:16:57;10.60;;;5.18;;
3819;SDS011;1925;51.356;9.530;2022-12-07T07:19:23;6.30;;;4.57;;
3819;SDS011;1925;51.356;9.530;2022-12-07T07:21:49;12.00;;;5.30;;
3819;SDS011;1925;51.356;9.530;2022-12-07T07:24:15;9.13;;;5.50;;
3819;SDS011;1925;51.356;9.530;2022-12-07T07:26:41;6.22;;;4.47;;
3819;SDS011;1925;51.356;9.530;2022-12-07T07:29:07;7.53;;;4.07;;
3819;SDS011;1925;51.356;9.530;2022-12-07T07:31:33;14.20;;;5.00;;
3819;SDS011;1925;51.356;9.530;2022-12-07T07:34:00;27.35;;;6.95;;
3819;SDS011;1925;51.356;9.530;2022-12-07T07:36:26;9.02;;;5.30;;
3819;SDS011;1925;51.356;9.530;2022-12-07T07:38:52;9.47;;;5.63;;
3819;SDS011;1925;51.356;9.530;2022-12-07T07:41:18;8.67;;;5.80;;
3819;SDS011;1925;51.356;9.530;2022-12-07T07:43:44;9.10;;;5.17;;
3819;SDS011;1925;51.356;9.530;2022-12-07T07:46:10;9.13;;;5.37;;
3819;SDS011;1925;51.356;9.530;2022-12-07T07:48:36;9.27;;;5.57;;
3819;SDS011;1925;51.356;9.530;2022-12-07T07:51:04;7.83;;;5.00;;
3819;SDS011;1925;51.356;9.530;2022-12-07T07:53:31;7.95;;;4.57;;
3819;SDS011;1925;51.356;9.530;2022-12-07T07:55:57;6.20;;;4.73;;
3819;SDS011;1925;51.356;9.530;2022-12-07T07:58:23;7.80;;;5.00;;
3819;SDS011;1925;51.356;9.530;2022-12-07T08:00:49;10.07;;;5.82;;
3819;SDS011;1925;51.356;9.530;2022-12-07T08:03:15;8.07;;;5.50;;
3819;SDS011;1925;51.356;9.530;2022-12-07T08:05:41;10.40;;;6.38;;
3819;SDS011;1925;51.356;9.530;2022-12-07T08:08:07;7.53;;;5.53;;
3819;SDS011;1925;51.356;9.530;2022-12-07T08:10:33;13.07;;;6.07;;
3819;SDS011;1925;51.356;9.530;2022-12-07T08:13:00;8.40;;;5.15;;
3819;SDS011;1925;51.356;9.530;2022-12-07T08:15:39;7.10;;;5.65;;
3819;SDS011;1925;51.356;9.530;2022-12-07T08:18:06;9.20;;;5.65;;
3819;SDS011;1925;51.356;9.530;2022-12-07T08:20:32;8.63;;;5.40;;
3819;SDS011;1925;51.356;9.530;2022-12-07T08:22:59;9.57;;;4.82;;
3819;SDS011;1925;51.356;9.530;2022-12-07T08:25:25;7.57;;;5.30;;
3819;SDS011;1925;51.356;9.530;2022-12-07T08:27:51;9.05;;;5.75;;
3819;SDS011;1925;51.356;9.530;2022-12-07T08:30:17;12.35;;;5.88;;
3819;SDS011;1925;51.356;9.530;2022-12-07T08:32:44;8.55;;;5.18;;
3819;SDS011;1925;51.356;9.530;2022-12-07T08:35:10;20.58;;;6.40;;
3819;SDS011;1925;51.356;9.530;2022-12-07T08:37:36;12.48;;;5.63;;
3819;SDS011;1925;51.356;9.530;2022-12-07T08:40:03;6.85;;;4.60;;
3819;SDS011;1925;51.356;9.530;2022-12-07T08:42:29;6.03;;;4.30;;
3819;SDS011;1925;51.356;9.530;2022-12-07T08:45:02;8.25;;;4.45;;
3819;SDS011;1925;51.356;9.530;2022-12-07T08:47:28;6.82;;;4.80;;
3819;SDS011;1925;51.356;9.530;2022-12-07T08:49:55;13.48;;;4.50;;
3819;SDS011;1925;51.356;9.530;2022-12-07T08:52:21;8.17;;;4.10;;
3819;SDS011;1925;51.356;9.530;2022-12-07T08:54:47;5.82;;;3.65;;
3819;SDS011;1925;51.356;9.530;2022-12-07T08:57:13;9.50;;;4.65;;
3819;SDS011;1925;51.356;9.530;2022-12-07T08:59:39;4.27;;;3.30;;
3819;SDS011;1925;51.356;9.530;2022-12-07T09:02:05;7.07;;;4.53;;
3819;SDS011;1925;51.356;9.530;2022-12-07T09:04:32;7.45;;;4.63;;
3819;SDS011;1925;51.356;9.530;2022-12-07T09:06:58;5.30;;;4.23;;
3819;SDS011;1925;51.356;9.530;2022-12-07T09:09:24;9.15;;;5.28;;
3819;SDS011;1925;51.356;9.530;2022-12-07T09:11:50;7.20;;;3.77;;
3819;SDS011;1925;51.356;9.530;2022-12-07T09:14:16;10.23;;;5.10;;
3819;SDS011;1925;51.356;9.530;2022-12-07T09:16:43;11.38;;;6.32;;
3819;SDS011;1925;51.356;9.530;2022-12-07T09:19:09;6.10;;;5.17;;
3819;SDS011;1925;51.356;9.530;2022-12-07T09:21:35;7.87;;;4.80;;
3819;SDS011;1925;51.356;9.530;2022-12-07T09:24:01;7.03;;;3.93;;
3819;SDS011;1925;51.356;9.530;2022-12-07T09:26:27;10.82;;;5.20;;
3819;SDS011;1925;51.356;9.530;2022-12-07T09:28:53;6.37;;;4.40;;
3819;SDS011;1925;51.356;9.530;2022-12-07T09:31:19;20.63;;;4.67;;
3819;SDS011;1925;51.356;9.530;2022-12-07T09:33:45;8.47;;;4.60;;
3819;SDS011;1925;51.356;9.530;2022-12-07T09:36:11;7.37;;;5.13;;
3819;SDS011;1925;51.356;9.530;2022-12-07T09:38:37;9.15;;;4.90;;
3819;SDS011;1925;51.356;9.530;2022-12-07T09:41:04;7.65;;;4.70;;
3819;SDS011;1925;51.356;9.530;2022-12-07T09:43:30;11.93;;;5.22;;
3819;SDS011;1925;51.356;9.530;2022-12-07T09:45:56;8.80;;;4.50;;
3819;SDS011;1925;51.356;9.530;2022-12-07T09:48:25;7.95;;;4.75;;
3819;SDS011;1925;51.356;9.530;2022-12-07T09:50:52;9.30;;;5.32;;
3819;SDS011;1925;51.356;9.530;2022-12-07T09:53:23;3.50;;;3.13;;
3819;SDS011;1925;51.356;9.530;2022-12-07T09:55:50;8.98;;;4.03;;
3819;SDS011;1925;51.356;9.530;2022-12-07T09:58:27;4.70;;;2.45;;
3819;SDS011;1925;51.356;9.530;2022-12-07T10:00:55;5.40;;;2.80;;
3819;SDS011;1925;51.356;9.530;2022-12-07T10:03:22;7.60;;;3.80;;
3819;SDS011;1925;51.356;9.530;2022-12-07T10:05:49;4.53;;;3.55;;
3819;SDS011;1925;51.356;9.530;2022-12-07T10:08:17;10.25;;;3.35;;
3819;SDS011;1925;51.356;9.530;2022-12-07T10:10:44;5.30;;;3.78;;
3819;SDS011;1925;51.356;9.530;2022-12-07T10:13:11;9.15;;;3.83;;
3819;SDS011;1925;51.356;9.530;2022-12-07T10:15:45;5.18;;;3.40;;
3819;SDS011;1925;51.356;9.530;2022-12-07T10:18:18;3.40;;;3.10;;
3819;SDS011;1925;51.356;9.530;2022-12-07T10:20:45;6.68;;;3.42;;
3819;SDS011;1925;51.356;9.530;2022-12-07T10:23:13;5.55;;;3.13;;
3819;SDS011;1925;51.356;9.530;2022-12-07T10:25:40;4.80;;;3.72;;
3819;SDS011;1925;51.356;9.530;2022-12-07T10:30:34;6.10;;;3.10;;
3819;SDS011;1925;51.356;9.530;2022-12-07T10:35:56;3.33;;;2.05;;
3819;SDS011;1925;51.356;9.530;2022-12-07T10:38:22;5.50;;;2.55;;
3819;SDS011;1925;51.356;9.530;2022-12-07T10:40:54;5.70;;;2.70;;
3819;SDS011;1925;51.356;9.530;2022-12-07T10:43:28;6.32;;;3.10;;
3819;SDS011;1925;51.356;9.530;2022-12-07T10:46:00;7.03;;;2.90;;
3819;SDS011;1925;51.356;9.530;2022-12-07T10:53:31;5.63;;;2.47;;
3819;SDS011;1925;51.356;9.530;2022-12-07T10:58:35;6.13;;;2.67;;
3819;SDS011;1925;51.356;9.530;2022-12-07T11:01:12;4.82;;;2.17;;
3819;SDS011;1925;51.356;9.530;2022-12-07T11:03:55;2.85;;;1.90;;
3819;SDS011;1925;51.356;9.530;2022-12-07T11:06:30;7.05;;;2.85;;
3819;SDS011;1925;51.356;9.530;2022-12-07T11:09:04;4.28;;;2.50;;
3819;SDS011;1925;51.356;9.530;2022-12-07T11:19:20;3.00;;;2.10;;
3819;SDS011;1925;51.356;9.530;2022-12-07T11:21:53;3.72;;;2.65;;
3819;SDS011;1925;51.356;9.530;2022-12-07T11:24:31;6.75;;;2.30;;
3819;SDS011;1925;51.356;9.530;2022-12-07T11:27:07;2.42;;;1.85;;
3819;SDS011;1925;51.356;9.530;2022-12-07T11:29:45;4.72;;;2.30;;
3819;SDS011;1925;51.356;9.530;2022-12-07T11:37:13;2.67;;;2.40;;
3819;SDS011;1925;51.356;9.530;2022-12-07T11:39:42;4.63;;;2.28;;
3819;SDS011;1925;51.356;9.530;2022-12-07T11:42:13;4.95;;;2.33;;
3819;SDS011;1925;51.356;9.530;2022-12-07T11:44:47;2.67;;;1.77;;
3819;SDS011;1925;51.356;9.530;2022-12-07T11:47:18;6.00;;;3.45;;
3819;SDS011;1925;51.356;9.530;2022-12-07T11:52:30;5.35;;;2.83;;
3819;SDS011;1925;51.356;9.530;2022-12-07T11:54:58;4.03;;;2.70;;
3819;SDS011;1925;51.356;9.530;2022-12-07T11:57:33;5.72;;;2.30;;
3819;SDS011;1925;51.356;9.530;2022-12-07T12:00:04;4.15;;;2.83;;
3819;SDS011;1925;51.356;9.530;2022-12-07T12:02:34;6.22;;;2.60;;
3819;SDS011;1925;51.356;9.530;2022-12-07T12:07:32;2.85;;;1.80;;
3819;SDS011;1925;51.356;9.530;2022-12-07T12:09:59;8.10;;;1.97;;
3819;SDS011;1925;51.356;9.530;2022-12-07T12:23:29;7.35;;;2.15;;
3819;SDS011;1925;51.356;9.530;2022-12-07T12:25:29;2.42;;;1.60;;
3819;SDS011;1925;51.356;9.530;2022-12-07T12:27:57;2.97;;;2.45;;
3819;SDS011;1925;51.356;9.530;2022-12-07T12:30:30;3.75;;;2.40;;
3819;SDS011;1925;51.356;9.530;2022-12-07T12:33:04;4.70;;;1.88;;
3819;SDS011;1925;51.356;9.530;2022-12-07T12:35:36;7.45;;;2.03;;
3819;SDS011;1925;51.356;9.530;2022-12-07T12:40:47;8.63;;;2.75;;
3819;SDS011;1925;51.356;9.530;2022-12-07T12:48:42;5.70;;;2.28;;
3819;SDS011;1925;51.356;9.530;2022-12-07T12:51:35;4.00;;;1.80;;
3819;SDS011;1925;51.356;9.530;2022-12-07T12:54:03;3.85;;;2.67;;
3819;SDS011;1925;51.356;9.530;2022-12-07T12:56:39;4.13;;;1.73;;
3819;SDS011;1925;51.356;9.530;2022-12-07T12:59:25;5.68;;;1.88;;
3819;SDS011;1925;51.356;9.530;2022-12-07T13:01:54;4.13;;;1.40;;
3819;SDS011;1925;51.356;9.530;2022-12-07T13:06:46;4.00;;;1.90;;
3819;SDS011;1925;51.356;9.530;2022-12-07T13:09:20;2.20;;;1.65;;
3819;SDS011;1925;51.356;9.530;2022-12-07T13:11:47;3.90;;;1.73;;
3819;SDS011;1925;51.356;9.530;2022-12-07T13:16:58;4.35;;;2.10;;
3819;SDS011;1925;51.356;9.530;2022-12-07T13:19:52;4.70;;;1.80;;
3819;SDS011;1925;51.356;9.530;2022-12-07T13:27:24;3.00;;;1.90;;
3819;SDS011;1925;51.356;9.530;2022-12-07T13:29:50;6.75;;;3.95;;
3819;SDS011;1925;51.356;9.530;2022-12-07T13:32:24;3.55;;;1.83;;
3819;SDS011;1925;51.356;9.530;2022-12-07T13:34:50;3.50;;;2.08;;
3819;SDS011;1925;51.356;9.530;2022-12-07T13:37:28;7.63;;;3.00;;
3819;SDS011;1925;51.356;9.530;2022-12-07T13:39:59;4.95;;;2.50;;
3819;SDS011;1925;51.356;9.530;2022-12-07T13:44:51;4.70;;;2.97;;
3819;SDS011;1925;51.356;9.530;2022-12-07T13:47:20;4.95;;;3.10;;
3819;SDS011;1925;51.356;9.530;2022-12-07T13:49:52;9.80;;;3.22;;
3819;SDS011;1925;51.356;9.530;2022-12-07T13:52:25;5.75;;;2.83;;
3819;SDS011;1925;51.356;9.530;2022-12-07T13:54:56;3.53;;;3.05;;
3819;SDS011;1925;51.356;9.530;2022-12-07T13:57:23;5.85;;;2.72;;
3819;SDS011;1925;51.356;9.530;2022-12-07T13:59:50;7.03;;;2.80;;
3819;SDS011;1925;51.356;9.530;2022-12-07T14:04:49;6.40;;;3.15;;
3819;SDS011;1925;51.356;9.530;2022-12-07T14:07:25;9.80;;;3.20;;
3819;SDS011;1925;51.356;9.530;2022-12-07T14:12:20;5.18;;;3.05;;
3819;SDS011;1925;51.356;9.530;2022-12-07T14:14:47;7.72;;;3.00;;
3819;SDS011;1925;51.356;9.530;2022-12-07T14:19:44;7.60;;;4.50;;
3819;SDS011;1925;51.356;9.530;2022-12-07T14:24:46;6.40;;;4.95;;
3819;SDS011;1925;51.356;9.530;2022-12-07T14:27:22;7.97;;;4.20;;
3819;SDS011;1925;51.356;9.530;2022-12-07T14:29:50;9.65;;;3.80;;
3819;SDS011;1925;51.356;9.530;2022-12-07T14:32:21;7.72;;;4.18;;
3819;SDS011;1925;51.356;9.530;2022-12-07T14:34:53;7.05;;;3.58;;
3819;SDS011;1925;51.356;9.530;2022-12-07T14:37:19;7.32;;;4.22;;
3819;SDS011;1925;51.356;9.530;2022-12-07T14:39:45;9.13;;;4.77;;
3819;SDS011;1925;51.356;9.530;2022-12-07T14:42:11;4.63;;;3.60;;
3819;SDS011;1925;51.356;9.530;2022-12-07T14:44:37;10.15;;;5.68;;
3819;SDS011;1925;51.356;9.530;2022-12-07T14:47:03;5.53;;;3.00;;
3819;SDS011;1925;51.356;9.530;2022-12-07T14:49:28;8.17;;;4.70;;
3819;SDS011;1925;51.356;9.530;2022-12-07T14:51:54;7.83;;;6.30;;
3819;SDS011;1925;51.356;9.530;2022-12-07T14:54:20;8.67;;;4.67;;
3819;SDS011;1925;51.356;9.530;2022-12-07T14:56:50;7.55;;;4.30;;
3819;SDS011;1925;51.356;9.530;2022-12-07T14:59:17;6.03;;;2.80;;
3819;SDS011;1925;51.356;9.530;2022-12-07T15:01:43;4.35;;;3.20;;
3819;SDS011;1925;51.356;9.530;2022-12-07T15:04:09;7.13;;;3.80;;
3819;SDS011;1925;51.356;9.530;2022-12-07T15:06:36;10.70;;;4.10;;
3819;SDS011;1925;51.356;9.530;2022-12-07T15:09:02;5.85;;;4.28;;
3819;SDS011;1925;51.356;9.530;2022-12-07T15:11:28;13.02;;;5.13;;
3819;SDS011;1925;51.356;9.530;2022-12-07T15:13:54;6.90;;;5.13;;
3819;SDS011;1925;51.356;9.530;2022-12-07T15:16:37;5.57;;;3.78;;
3819;SDS011;1925;51.356;9.530;2022-12-07T15:19:14;4.97;;;3.45;;
3819;SDS011;1925;51.356;9.530;2022-12-07T15:21:40;7.32;;;3.47;;
3819;SDS011;1925;51.356;9.530;2022-12-07T15:24:07;9.05;;;3.47;;
3819;SDS011;1925;51.356;9.530;2022-12-07T15:26:33;3.88;;;3.20;;
3819;SDS011;1925;51.356;9.530;2022-12-07T15:28:59;5.27;;;3.30;;
3819;SDS011;1925;51.356;9.530;2022-12-07T15:31:25;4.47;;;3.40;;
3819;SDS011;1925;51.356;9.530;2022-12-07T15:33:51;7.83;;;3.67;;
3819;SDS011;1925;51.356;9.530;2022-12-07T15:36:18;5.95;;;4.20;;
3819;SDS011;1925;51.356;9.530;2022-12-07T15:38:46;8.77;;;3.60;;
3819;SDS011;1925;51.356;9.530;2022-12-07T15:41:12;6.30;;;3.35;;
3819;SDS011;1925;51.356;9.530;2022-12-07T15:43:38;6.00;;;3.27;;
3819;SDS011;1925;51.356;9.530;2022-12-07T15:46:23;8.35;;;3.75;;
3819;SDS011;1925;51.356;9.530;2022-12-07T15:48:49;3.30;;;2.90;;
3819;SDS011;1925;51.356;9.530;2022-12-07T15:51:15;5.27;;;3.20;;
3819;SDS011;1925;51.356;9.530;2022-12-07T15:53:41;8.53;;;4.97;;
3819;SDS011;1925;51.356;9.530;2022-12-07T15:56:07;7.50;;;5.70;;
3819;SDS011;1925;51.356;9.530;2022-12-07T15:58:33;4.82;;;4.32;;
3819;SDS011;1925;51.356;9.530;2022-12-07T16:00:59;7.90;;;5.82;;
3819;SDS011;1925;51.356;9.530;2022-12-07T16:03:26;17.73;;;9.95;;
3819;SDS011;1925;51.356;9.530;2022-12-07T16:05:52;14.05;;;7.63;;
3819;SDS011;1925;51.356;9.530;2022-12-07T16:08:19;12.02;;;7.30;;
3819;SDS011;1925;51.356;9.530;2022-12-07T16:10:45;14.27;;;6.15;;
3819;SDS011;1925;51.356;9.530;2022-12-07T16:13:11;10.98;;;6.13;;
3819;SDS011;1925;51.356;9.530;2022-12-07T16:15:39;11.75;;;8.05;;
3819;SDS011;1925;51.356;9.530;2022-12-07T16:18:05;14.45;;;9.32;;
3819;SDS011;1925;51.356;9.530;2022-12-07T16:20:31;8.07;;;6.73;;
3819;SDS011;1925;51.356;9.530;2022-12-07T16:22:57;10.60;;;6.87;;
3819;SDS011;1925;51.356;9.530;2022-12-07T16:25:23;11.52;;;6.18;;
3819;SDS011;1925;51.356;9.530;2022-12-07T16:27:50;8.07;;;7.13;;
3819;SDS011;1925;51.356;9.530;2022-12-07T16:30:16;13.05;;;8.82;;
3819;SDS011;1925;51.356;9.530;2022-12-07T16:32:42;14.95;;;7.93;;
3819;SDS011;1925;51.356;9.530;2022-12-07T16:35:09;9.60;;;7.13;;
3819;SDS011;1925;51.356;9.530;2022-12-07T16:37:35;5.68;;;4.22;;
3819;SDS011;1925;51.356;9.530;2022-12-07T16:40:01;7.50;;;5.10;;
3819;SDS011;1925;51.356;9.530;2022-12-07T16:42:28;10.00;;;4.30;;
3819;SDS011;1925;51.356;9.530;2022-12-07T16:44:57;6.55;;;4.50;;
3819;SDS011;1925;51.356;9.530;2022-12-07T16:47:23;6.50;;;4.53;;
3819;SDS011;1925;51.356;9.530;2022-12-07T16:49:48;7.93;;;5.07;;
3819;SDS011;1925;51.356;9.530;2022-12-07T16:52:15;16.58;;;5.85;;
3819;SDS011;1925;51.356;9.530;2022-12-07T16:54:41;7.40;;;4.60;;
3819;SDS011;1925;51.356;9.530;2022-12-07T16:57:07;6.15;;;5.05;;
3819;SDS011;1925;51.356;9.530;2022-12-07T16:59:33;10.60;;;6.20;;
3819;SDS011;1925;51.356;9.530;2022-12-07T17:01:59;17.93;;;7.57;;
3819;SDS011;1925;51.356;9.530;2022-12-07T17:04:25;10.63;;;6.03;;